Hauptseite
METAR-TAF:

METAR-TAF

Flughäfen :

Flughafen Edinburgh

Edinburgh, Schottland

Breite: 55-57N, Länge: 003-21W, Höhe: 41 m

Beobachtung

Neuester Wetterbericht von vor 33 Minuten, um 10:50 UTC
Wind 3 kt aus unterschiedlichen Richtungen
Temperatur 16°C
Luftfeuchtigkeit 51%
Luftdruck 1037 hPa
Sichtweite 10 km oder mehr
keine Wolken unter 1500 m und keine Kumulonimbus oder Gewitterwolken

METAR: EGPH 271050Z VRB03KT CAVOK 16/06 Q1037

Zeit: 12:23 (11:23 UTC)

Prognose

Neuester Wetterbericht von vor 6 Stunden und 22 Minuten, um 05:01 UTC
Gültige Prognose vom 27 um 06 UTC bis 28 um 06 UTC
Wind 6 kt aus West/Südwest
Sichtweite 10 km oder mehr
Aufgelockert bewölkt in der Höhe von 4500 ft
Übergehend zu
vom 27 um 11 UTC bis 27 um 14 UTC
Wind 10 kt aus Nordost
Übergehend zu
vom 27 um 17 UTC bis 27 um 20 UTC
Wind 5 kt aus Südwest

TAF: EGPH 270501Z 2706/2806 24006KT 9999 SCT045 BECMG 2711/2714 05010KT BECMG 2717/2720 23005KT

Wetterbeobachtungen und Prognosen von mehr als 4000 Flughäfen (METAR und TAF Bericht).

Die verfügbaren Stationen werden durch gelbe und rote Markierungen auf der Karte dargestellt.

Führen Sie die Maus auf sie, um den Namen der Station zu sehen.

Darauf klicken, um die Beobachtung von Wetterbeobachtungen und Prognosen zu sehen.

Um die Karte zu ändern : klicken Sie auf den grünen Tasten mit einem schwarzen Kreuz Zum Vergrößern, auf den grünen Button mit einem Gedankenstrich zu verkleinern, oder auf die grünen Pfeile für benachbarte Karten.


METAR-TAF: